Погода Барриньяна неделю

Сан-Паулу, Бразилия

25 - 31 июля
  • 25июля
    Сегодня
    +12°
    +30°
    Ясно и безоблачно
    ВремяПогодаТемператураВлажностьДавлениеВетер, м/сВероятность осадков
    00:00Небольшая облачность+19°C53 %720 мм2.5 м/с5 %
    03:00Ясно и безоблачно+17°C55 %719 мм1.8 м/с5 %
    06:00Ясно и безоблачно+14°C72 %719 мм2.0 м/с5 %
    09:00Ясно и безоблачно+20°C46 %721 мм1.5 м/с5 %
    12:00Ясно и безоблачно+27°C27 %721 мм2.3 м/с5 %
    15:00Ясно и безоблачно+30°C24 %719 мм1.0 м/с5 %
    18:00Ясно и безоблачно+26°C36 %718 мм1.3 м/с5 %
    21:00Ясно и безоблачно+23°C39 %718 мм0.3 м/с5 %
  • 26июля
    Пятница
    +13°
    +30°
    Облачно с прояснениями
    ВремяПогодаТемператураВлажностьДавлениеВетер, м/сВероятность осадков
    00:00Ясно и безоблачно+18°C52 %718 мм1.8 м/с5 %
    03:00Ясно и безоблачно+15°C62 %717 мм2.0 м/с5 %
    06:00Ясно и безоблачно+13°C70 %717 мм2.2 м/с5 %
    09:00Практически безоблачно+19°C47 %719 мм1.0 м/с5 %
    12:00Облачно с прояснениями+27°C27 %719 мм1.7 м/с5 %
    15:00Облачно с прояснениями+30°C24 %717 мм0.6 м/с5 %
    18:00Облачно с прояснениями+25°C36 %717 мм1.6 м/с5 %
    21:00Облачно с прояснениями+22°C43 %718 мм2.0 м/с5 %
  • 27июля
    Суббота
    +15°
    +32°
    Ясно и безоблачно
    ВремяПогодаТемператураВлажностьДавлениеВетер, м/сВероятность осадков
    00:00Облачно с прояснениями+18°C52 %717 мм2.5 м/с5 %
    03:00Облачно с прояснениями+16°C58 %716 мм2.4 м/с5 %
    06:00Облачно с прояснениями+14°C69 %716 мм1.8 м/с5 %
    09:00Небольшая облачность+21°C44 %719 мм0.8 м/с5 %
    12:00Практически безоблачно+29°C23 %719 мм2.8 м/с5 %
    15:00Ясно и безоблачно+31°C22 %717 мм1.3 м/с5 %
    18:00Ясно и безоблачно+28°C30 %718 мм2.3 м/с5 %
    21:00Ясно и безоблачно+23°C42 %718 мм2.1 м/с5 %
  • 28июля
    Воскресенье
    +17°
    +33°
    Ясно и безоблачно
    ВремяПогодаТемператураВлажностьДавлениеВетер, м/сВероятность осадков
    00:00Ясно и безоблачно+19°C51 %718 мм2.2 м/с5 %
    03:00Ясно и безоблачно+17°C55 %717 мм1.1 м/с5 %
    06:00Ясно и безоблачно+16°C64 %717 мм2.4 м/с5 %
    09:00Ясно и безоблачно+22°C42 %719 мм0.7 м/с5 %
    12:00Ясно и безоблачно+30°C25 %719 мм3.3 м/с5 %
    15:00Ясно и безоблачно+32°C22 %717 мм2.4 м/с5 %
    18:00Ясно и безоблачно+29°C31 %717 мм1.8 м/с5 %
    21:00Ясно и безоблачно+25°C39 %717 мм0.7 м/с5 %
  • 29июля
    Понедельник
    +15°
    +34°
    Ясно и безоблачно
    ВремяПогодаТемператураВлажностьДавлениеВетер, м/сВероятность осадков
    00:00Ясно и безоблачно+21°C49 %717 мм1.3 м/с5 %
    03:00Ясно и безоблачно+19°C54 %717 мм2.0 м/с5 %
    06:00Ясно и безоблачно+18°C57 %717 мм1.8 м/с5 %
    09:00Ясно и безоблачно+22°C44 %719 мм1.9 м/с5 %
    12:00Ясно и безоблачно+30°C29 %719 мм4.3 м/с5 %
    15:00Ясно и безоблачно+33°C24 %717 мм2.8 м/с5 %
    18:00Ясно и безоблачно+31°C28 %717 мм2.4 м/с5 %
    21:00Облачно с прояснениями+25°C38 %717 мм2.4 м/с6 %
Мы используем cookies
Соглашаюсь